Time;durP1;ratioP1;P1;durP2;ratioP2;P2;SDS_P1;SDS_P2;PMS_P1;PMS_P2;Temp;Humidity;BMP_temperature;BMP_pressure;BME280_temperature;BME280_humidity;BME280_pressure;Samples;Min_cycle;Max_cycle;Signal;HPM_P1;HPM_P2
2024/04/13 00:01:33;;;;;;;;;;;;;;;21.00;32.65;98743.13;5346375;26;1233;-74
2024/04/13 00:03:58;;;;;;;;;;;;;;;20.57;33.28;98740.75;5317345;26;999;-75
2024/04/13 00:06:24;;;;;;;;;;;;;;;19.73;34.25;98688.25;5346369;26;941;-74
2024/04/13 00:08:50;;;;;;;;;;;;;;;20.03;34.27;98746.09;5371200;26;909;-73
2024/04/13 00:11:16;;;;;;;;;;;;;;;20.50;33.27;98747.31;5388373;26;1021;-73
2024/04/13 00:13:41;;;;;;;;;;;;;;;20.37;33.55;98749.03;5358779;26;1200;-73
2024/04/13 00:16:07;;;;;;;;;;;;;;;20.80;32.66;98752.22;5417852;26;1818;-74
2024/04/13 00:18:32;;;;;;;;;;;;;;;20.52;33.01;98744.06;5419579;26;1011;-74
2024/04/13 00:20:58;;;;;;;;;;;;;;;20.27;33.35;98745.09;5357831;26;1122;-74
2024/04/13 00:23:24;;;;;;;;;;;;;;;20.58;32.87;98748.06;5388192;26;1124;-73
2024/04/13 00:25:53;;;;;;;;;;;;;;;20.41;33.01;98743.34;5419037;26;1145;-73
2024/04/13 00:28:18;;;;;;;;;;;;;;;20.23;33.21;98743.50;5316807;26;966;-75
2024/04/13 00:30:44;;;;;;;;;;;;;;;20.71;33.05;98743.44;5288664;26;905;-73
2024/04/13 00:33:10;;;;;;;;;;;;;;;20.66;34.17;98732.59;5311153;27;1008;-74
2024/04/13 00:35:35;;;;;;;;;;;;;;;20.78;34.32;98742.59;5277094;27;1068;-74
2024/04/13 00:38:01;;;;;;;;;;;;;;;20.98;34.28;98739.91;5248956;27;1826;-74
2024/04/13 00:40:27;;;;;;;;;;;;;;;20.96;34.77;98739.53;5277011;27;960;-74
2024/04/13 00:42:52;;;;;;;;;;;;;;;21.04;34.73;98741.84;5221073;27;1258;-74
2024/04/13 00:45:18;;;;;;;;;;;;;;;20.81;34.72;98745.34;5249062;27;1210;-74
2024/04/13 00:47:45;;;;;;;;;;;;;;;20.94;34.03;98742.00;5220763;27;1601;-74
2024/04/13 00:50:11;;;;;;;;;;;;;;;20.41;34.79;98738.47;5248711;27;1277;-74
2024/04/13 00:52:38;;;;;;;;;;;;;;;20.77;34.19;98736.09;5276930;27;1046;-73
2024/04/13 00:55:03;;;;;;;;;;;;;;;20.91;33.86;98737.16;5220863;27;1100;-74
2024/04/13 00:57:29;;;;;;;;;;;;;;;20.52;34.46;98735.56;5220908;27;1823;-73
2024/04/13 00:59:54;;;;;;;;;;;;;;;20.84;33.75;98738.06;5248339;27;899;-74
2024/04/13 01:02:21;;;;;;;;;;;;;;;20.61;34.14;98735.88;5242627;27;999;-74
2024/04/13 01:04:49;;;;;;;;;;;;;;;20.83;33.81;98735.63;5187887;27;1453;-74
2024/04/13 01:07:16;;;;;;;;;;;;;;;20.91;33.30;98737.97;5292814;26;991;-73
2024/04/13 01:09:45;;;;;;;;;;;;;;;20.32;34.54;98732.53;5345120;26;1040;-74
2024/04/13 01:12:11;;;;;;;;;;;;;;;20.52;34.03;98732.75;5287490;26;1035;-74
2024/04/13 01:14:37;;;;;;;;;;;;;;;20.99;33.08;98735.88;5316457;26;969;-74
2024/04/13 01:17:02;;;;;;;;;;;;;;;20.74;33.29;98734.13;5344644;26;1837;-75
2024/04/13 01:19:28;;;;;;;;;;;;;;;20.30;34.25;98727.28;5316284;26;1136;-74
2024/04/13 01:21:54;;;;;;;;;;;;;;;20.45;34.14;98733.59;5287490;26;1210;-73
2024/04/13 01:24:20;;;;;;;;;;;;;;;20.70;33.55;98724.88;5316678;26;1029;-73
2024/04/13 01:26:46;;;;;;;;;;;;;;;20.89;33.13;98722.66;5316352;26;922;-73
2024/04/13 01:29:11;;;;;;;;;;;;;;;20.75;33.35;98723.63;5287316;26;1182;-74
2024/04/13 01:31:40;;;;;;;;;;;;;;;20.71;32.90;98722.84;5287840;26;1134;-73
2024/04/13 01:34:06;;;;;;;;;;;;;;;20.16;34.11;98718.97;5348001;26;1176;-73
2024/04/13 01:36:35;;;;;;;;;;;;;;;20.45;33.54;98715.84;5319560;26;1818;-73
2024/04/13 01:39:02;;;;;;;;;;;;;;;20.52;33.35;98715.78;5331593;26;973;-74
2024/04/13 01:41:28;;;;;;;;;;;;;;;20.52;33.49;98715.78;5390601;26;1337;-74
2024/04/13 01:43:53;;;;;;;;;;;;;;;20.93;33.45;98712.88;5353715;26;1182;-74
2024/04/13 01:46:18;;;;;;;;;;;;;;;20.53;34.56;98703.28;5383134;26;922;-74
2024/04/13 01:48:44;;;;;;;;;;;;;;;20.87;34.43;98703.25;5383235;26;988;-73
2024/04/13 01:51:09;;;;;;;;;;;;;;;21.04;34.60;98712.75;5383001;26;946;-74
2024/04/13 01:53:36;;;;;;;;;;;;;;;20.98;34.84;98708.78;5354179;26;935;-73
2024/04/13 01:56:02;;;;;;;;;;;;;;;20.99;34.83;98705.53;5324859;26;1844;-74
2024/04/13 01:58:27;;;;;;;;;;;;;;;20.36;35.62;98712.69;5354021;26;1409;-73
2024/04/13 02:00:53;;;;;;;;;;;;;;;20.66;34.83;98715.63;5383170;26;973;-73
2024/04/13 02:03:18;;;;;;;;;;;;;;;20.67;34.10;98717.22;5296038;26;1144;-74
2024/04/13 02:05:44;;;;;;;;;;;;;;;20.69;33.96;98714.78;5382847;26;972;-73
2024/04/13 02:08:10;;;;;;;;;;;;;;;20.70;34.03;98722.06;5353595;26;921;-74
2024/04/13 02:10:35;;;;;;;;;;;;;;;20.58;34.28;98719.78;5325437;26;1111;-73
2024/04/13 02:13:03;;;;;;;;;;;;;;;20.43;34.49;98712.63;5353664;26;1427;-74
2024/04/13 02:15:28;;;;;;;;;;;;;;;20.59;34.34;98715.72;5411453;26;970;-73
2024/04/13 02:17:54;;;;;;;;;;;;;;;20.87;33.67;98719.44;5360669;26;1822;-73
2024/04/13 02:20:20;;;;;;;;;;;;;;;20.51;34.25;98712.16;5390155;26;1284;-72
2024/04/13 02:22:45;;;;;;;;;;;;;;;20.25;34.65;98713.59;5389995;26;1038;-73
2024/04/13 02:25:14;;;;;;;;;;;;;;;20.48;34.29;98707.34;5389725;26;1132;-73
2024/04/13 02:27:40;;;;;;;;;;;;;;;20.32;34.20;98706.31;5390312;26;1220;-73
2024/04/13 02:30:06;;;;;;;;;;;;;;;20.59;33.92;98698.75;5389990;26;1069;-73
2024/04/13 02:32:32;;;;;;;;;;;;;;;20.58;33.75;98702.81;5390144;26;1234;-74
2024/04/13 02:34:57;;;;;;;;;;;;;;;20.44;33.94;98702.94;5421093;26;948;-74
2024/04/13 02:37:23;;;;;;;;;;;;;;;20.42;34.01;98699.72;5360550;26;1815;-73
2024/04/13 02:39:48;;;;;;;;;;;;;;;20.72;33.65;98705.44;5389770;26;1157;-74
2024/04/13 02:42:14;;;;;;;;;;;;;;;20.72;33.43;98705.44;5389933;26;1146;-74
2024/04/13 02:44:39;;;;;;;;;;;;;;;20.92;33.02;98710.47;5359725;26;984;-75
2024/04/13 02:47:05;;;;;;;;;;;;;;;20.41;33.78;98706.59;5421059;26;862;-74
2024/04/13 02:49:31;;;;;;;;;;;;;;;20.45;33.71;98704.53;5389724;26;1005;-73
2024/04/13 02:51:56;;;;;;;;;;;;;;;20.73;33.35;98709.91;5360186;26;928;-74
2024/04/13 02:54:22;;;;;;;;;;;;;;;20.30;33.92;98701.03;5360083;26;1180;-73
2024/04/13 02:56:47;;;;;;;;;;;;;;;20.41;33.66;98703.75;5389202;26;1825;-74
2024/04/13 02:59:13;;;;;;;;;;;;;;;20.78;32.83;98700.97;5389699;26;926;-73
2024/04/13 03:01:39;;;;;;;;;;;;;;;20.43;33.23;98707.78;5360247;26;898;-73
2024/04/13 03:04:06;;;;;;;;;;;;;;;20.68;32.78;98713.19;5284384;27;901;-74
2024/04/13 03:06:31;;;;;;;;;;;;;;;20.74;32.64;98714.34;5255950;27;1139;-74
2024/04/13 03:08:57;;;;;;;;;;;;;;;20.72;33.29;98708.28;5284468;27;960;-73
2024/04/13 03:11:23;;;;;;;;;;;;;;;20.93;33.45;98714.91;5312950;27;954;-73
2024/04/13 03:13:49;;;;;;;;;;;;;;;20.84;34.31;98714.63;5283775;27;1174;-74
2024/04/13 03:16:14;;;;;;;;;;;;;;;20.90;34.67;98712.94;5312706;27;1843;-74
2024/04/13 03:18:42;;;;;;;;;;;;;;;20.95;34.58;98710.44;5317930;26;1595;-74
2024/04/13 03:21:07;;;;;;;;;;;;;;;20.91;34.76;98708.88;5317778;26;1196;-74
2024/04/13 03:23:33;;;;;;;;;;;;;;;20.83;34.94;98702.53;5346771;26;913;-73
2024/04/13 03:25:59;;;;;;;;;;;;;;;20.64;34.81;98711.63;5317906;26;1161;-74
2024/04/13 03:28:25;;;;;;;;;;;;;;;20.68;34.37;98707.53;5289438;26;916;-74
2024/04/13 03:30:51;;;;;;;;;;;;;;;20.85;34.18;98710.56;5317883;26;918;-74
2024/04/13 03:33:16;;;;;;;;;;;;;;;20.59;34.32;98712.88;5346888;26;947;-73
2024/04/13 03:35:42;;;;;;;;;;;;;;;20.90;33.76;98708.06;5342322;26;2111;-75
2024/04/13 03:38:07;;;;;;;;;;;;;;;20.78;33.77;98706.63;5420076;26;2530;-73
2024/04/13 03:40:34;;;;;;;;;;;;;;;20.85;33.59;98710.56;5419649;26;2295;-74
2024/04/13 03:43:00;;;;;;;;;;;;;;;20.72;33.86;98713.13;5387194;26;1201;-74
2024/04/13 03:45:25;;;;;;;;;;;;;;;20.54;34.07;98719.00;5387446;26;985;-73
2024/04/13 03:47:51;;;;;;;;;;;;;;;20.63;33.91;98712.88;5417168;26;966;-74
2024/04/13 03:50:17;;;;;;;;;;;;;;;20.25;34.44;98713.59;5418951;26;896;-74
2024/04/13 03:52:43;;;;;;;;;;;;;;;20.65;33.34;98713.22;5317555;26;977;-75
2024/04/13 03:55:09;;;;;;;;;;;;;;;20.53;33.82;98723.88;5292422;26;1738;-74
2024/04/13 03:57:34;;;;;;;;;;;;;;;20.28;34.26;98721.25;5350892;26;1831;-75
2024/04/13 04:00:00;;;;;;;;;;;;;;;20.48;33.72;98720.69;5380485;26;1738;-74
2024/04/13 04:02:25;;;;;;;;;;;;;;;20.56;33.64;98722.19;5350826;26;1679;-74
2024/04/13 04:04:51;;;;;;;;;;;;;;;19.98;34.60;98726.78;5381733;26;934;-74
2024/04/13 04:07:16;;;;;;;;;;;;;;;20.39;33.73;98726.00;5381146;26;1021;-74
2024/04/13 04:09:42;;;;;;;;;;;;;;;20.34;33.89;98732.91;5348271;26;2086;-73
2024/04/13 04:12:07;;;;;;;;;;;;;;;20.56;33.61;98727.84;5378705;26;1757;-73
2024/04/13 04:14:33;;;;;;;;;;;;;;;20.54;33.59;98725.47;5351929;26;962;-74
2024/04/13 04:16:59;;;;;;;;;;;;;;;20.59;33.43;98724.19;5381387;26;1853;-74
2024/04/13 04:19:24;;;;;;;;;;;;;;;20.67;33.22;98725.72;5351691;26;943;-74
2024/04/13 04:21:50;;;;;;;;;;;;;;;20.79;32.78;98719.53;5351635;26;1262;-73
2024/04/13 04:24:15;;;;;;;;;;;;;;;20.51;33.39;98714.19;5348317;26;1206;-74
2024/04/13 04:26:41;;;;;;;;;;;;;;;19.89;34.37;98724.41;5392068;26;1908;-74
2024/04/13 04:29:06;;;;;;;;;;;;;;;20.36;33.63;98718.34;5453643;26;1966;-74
2024/04/13 04:31:32;;;;;;;;;;;;;;;20.53;33.08;98723.06;5394001;26;1108;-74
2024/04/13 04:33:57;;;;;;;;;;;;;;;20.79;32.57;98718.72;5455181;26;915;-74
2024/04/13 04:36:23;;;;;;;;;;;;;;;20.63;33.28;98722.16;5454043;26;2035;-74
2024/04/13 04:38:51;;;;;;;;;;;;;;;20.53;34.56;98731.53;5423460;26;957;-74
2024/04/13 04:41:17;;;;;;;;;;;;;;;20.94;34.23;98727.84;5454842;26;855;-74
2024/04/13 04:43:43;;;;;;;;;;;;;;;20.91;34.56;98726.66;5423249;26;1109;-74
2024/04/13 04:46:09;;;;;;;;;;;;;;;20.96;34.83;98731.03;5393417;26;1119;-74
2024/04/13 04:48:34;;;;;;;;;;;;;;;21.06;34.70;98732.94;5370586;26;2100;-73
2024/04/13 04:51:01;;;;;;;;;;;;;;;20.75;34.83;98730.06;5387604;26;1420;-74
2024/04/13 04:53:27;;;;;;;;;;;;;;;20.56;34.83;98730.69;5387976;26;993;-74
2024/04/13 04:55:52;;;;;;;;;;;;;;;20.76;34.16;98726.00;5345310;26;1122;-74
2024/04/13 04:58:18;;;;;;;;;;;;;;;20.20;35.00;98727.38;5316216;26;1864;-74
2024/04/13 05:00:44;;;;;;;;;;;;;;;20.90;33.63;98732.75;5345387;26;1032;-73
2024/04/13 05:03:09;;;;;;;;;;;;;;;21.14;33.08;98734.47;5328120;26;2033;-74
2024/04/13 05:05:35;;;;;;;;;;;;;;;20.69;33.33;98731.75;5316717;26;1108;-74
2024/04/13 05:08:00;;;;;;;;;;;;;;;20.45;33.87;98727.16;5318047;26;1251;-74
2024/04/13 05:10:26;;;;;;;;;;;;;;;20.49;33.94;98727.94;5319821;26;1081;-74
2024/04/13 05:12:52;;;;;;;;;;;;;;;20.48;33.91;98732.81;5319466;26;1242;-73
2024/04/13 05:15:17;;;;;;;;;;;;;;;20.81;32.90;98734.03;5348662;26;937;-74
2024/04/13 05:17:43;;;;;;;;;;;;;;;20.84;32.94;98728.78;5347247;26;1836;-74
2024/04/13 05:20:08;;;;;;;;;;;;;;;20.38;33.46;98727.22;5348416;26;925;-74
2024/04/13 05:22:34;;;;;;;;;;;;;;;20.67;33.12;98725.72;5348472;26;1073;-74
2024/04/13 05:24:59;;;;;;;;;;;;;;;20.69;33.08;98726.09;5348153;26;1178;-74
2024/04/13 05:27:25;;;;;;;;;;;;;;;20.47;33.20;98727.56;5379111;26;1188;-73
2024/04/13 05:29:53;;;;;;;;;;;;;;;20.51;33.19;98725.50;5389173;26;1130;-74
2024/04/13 05:32:19;;;;;;;;;;;;;;;20.52;33.06;98727.91;5388667;26;2059;-73
2024/04/13 05:34:44;;;;;;;;;;;;;;;20.73;32.88;98726.88;5418478;26;915;-74
2024/04/13 05:37:10;;;;;;;;;;;;;;;20.72;32.67;98733.72;5359653;26;1845;-74
2024/04/13 05:39:35;;;;;;;;;;;;;;;20.70;32.61;98727.72;5359797;26;1059;-74
2024/04/13 05:42:01;;;;;;;;;;;;;;;20.20;33.52;98739.50;5389003;26;1502;-74
2024/04/13 05:44:28;;;;;;;;;;;;;;;20.13;33.60;98731.09;5390088;26;914;-74
2024/04/13 05:46:54;;;;;;;;;;;;;;;20.41;33.24;98732.03;5402234;26;2062;-74
2024/04/13 05:49:20;;;;;;;;;;;;;;;20.65;32.68;98733.81;5396320;26;1106;-74
2024/04/13 05:51:45;;;;;;;;;;;;;;;20.14;33.50;98729.88;5425858;26;926;-74
2024/04/13 05:54:11;;;;;;;;;;;;;;;20.58;32.66;98728.25;5319059;26;1488;-73
2024/04/13 05:56:36;;;;;;;;;;;;;;;20.35;33.18;98737.34;5288538;26;1864;-74
2024/04/13 05:59:02;;;;;;;;;;;;;;;20.47;32.73;98736.06;5290692;26;1316;-73
2024/04/13 06:01:28;;;;;;;;;;;;;;;20.61;33.50;98735.09;5290849;26;877;-74
2024/04/13 06:03:54;;;;;;;;;;;;;;;20.86;33.61;98734.81;5313048;27;1004;-74
2024/04/13 06:06:19;;;;;;;;;;;;;;;20.98;33.90;98739.91;5284243;27;2140;-74
2024/04/13 06:08:45;;;;;;;;;;;;;;;21.02;34.10;98740.66;5313173;27;895;-74
2024/04/13 06:11:11;;;;;;;;;;;;;;;21.06;34.29;98745.06;5257086;27;1192;-73
2024/04/13 06:13:36;;;;;;;;;;;;;;;20.93;34.61;98741.16;5256377;27;1230;-74
2024/04/13 06:16:02;;;;;;;;;;;;;;;20.73;34.56;98743.84;5284910;27;1826;-74
2024/04/13 06:18:28;;;;;;;;;;;;;;;20.78;33.91;98746.22;5255068;27;1343;-74
2024/04/13 06:20:54;;;;;;;;;;;;;;;20.92;33.36;98745.22;5283213;26;1676;-74
2024/04/13 06:23:19;;;;;;;;;;;;;;;20.40;34.21;98736.09;5284665;27;980;-74
2024/04/13 06:25:46;;;;;;;;;;;;;;;20.63;33.72;98736.28;5303233;27;1160;-75
2024/04/13 06:28:12;;;;;;;;;;;;;;;20.24;34.33;98745.91;5250700;27;997;-74
2024/04/13 06:30:39;;;;;;;;;;;;;;;20.16;34.35;98749.22;5250304;27;1243;-74
2024/04/13 06:33:05;;;;;;;;;;;;;;;20.54;33.68;98735.97;5250928;27;966;-74
2024/04/13 06:35:31;;;;;;;;;;;;;;;20.99;32.72;98744.34;5222172;27;1484;-74
2024/04/13 06:37:57;;;;;;;;;;;;;;;20.91;32.76;98742.81;5242665;27;1823;-73
2024/04/13 06:40:24;;;;;;;;;;;;;;;20.58;33.32;98739.56;5245143;27;910;-74
2024/04/13 06:42:50;;;;;;;;;;;;;;;20.58;33.45;98744.41;5245217;27;949;-74
2024/04/13 06:45:16;;;;;;;;;;;;;;;20.59;33.39;98744.00;5245407;27;926;-74
2024/04/13 06:47:42;;;;;;;;;;;;;;;21.01;32.78;98737.03;5244854;27;1007;-73
2024/04/13 06:50:07;;;;;;;;;;;;;;;20.91;33.04;98742.81;5273465;27;947;-74
2024/04/13 06:52:33;;;;;;;;;;;;;;;20.68;33.27;98741.47;5234453;27;1881;-74
2024/04/13 06:54:58;;;;;;;;;;;;;;;20.80;33.10;98742.94;5248579;27;1705;-73
2024/04/13 06:57:25;;;;;;;;;;;;;;;20.51;33.47;98739.63;5247316;27;1865;-73
2024/04/13 06:59:51;;;;;;;;;;;;;;;20.33;33.70;98745.44;5235326;27;2634;-75
2024/04/13 07:02:17;;;;;;;;;;;;;;;20.51;33.31;98745.28;5283772;27;1087;-74
2024/04/13 07:04:42;;;;;;;;;;;;;;;19.87;34.49;98743.03;5312735;27;1012;-75
2024/04/13 07:07:08;;;;;;;;;;;;;;;20.30;33.64;98755.53;5309751;26;2393;-74
2024/04/13 07:09:34;;;;;;;;;;;;;;;20.60;33.17;98745.59;5289232;27;1867;-75
2024/04/13 07:11:59;;;;;;;;;;;;;;;20.87;32.57;98750.53;5284076;27;910;-73
2024/04/13 07:14:25;;;;;;;;;;;;;;;20.70;33.02;98749.53;5283361;27;1657;-74
2024/04/13 07:16:51;;;;;;;;;;;;;;;20.65;32.85;98747.97;5284084;27;1848;-74
2024/04/13 07:19:17;;;;;;;;;;;;;;;20.36;33.20;98753.06;5283769;27;937;-74
2024/04/13 07:21:43;;;;;;;;;;;;;;;20.24;33.38;98762.88;5256501;27;1059;-74
2024/04/13 07:24:08;;;;;;;;;;;;;;;19.85;34.27;98757.56;5276542;26;2113;-76
2024/04/13 07:26:34;;;;;;;;;;;;;;;20.67;32.48;98756.00;5255578;27;981;-74
2024/04/13 07:29:00;;;;;;;;;;;;;;;20.53;32.97;98754.97;5283897;27;877;-74
2024/04/13 07:31:25;;;;;;;;;;;;;;;20.52;32.93;98755.34;5307139;26;1091;-74
2024/04/13 07:33:51;;;;;;;;;;;;;;;20.59;32.77;98749.66;5388927;26;920;-74
2024/04/13 07:36:16;;;;;;;;;;;;;;;20.69;32.45;98743.06;5359266;26;1837;-74
2024/04/13 07:38:42;;;;;;;;;;;;;;;20.58;32.82;98742.41;5389036;26;1147;-73
2024/04/13 07:41:07;;;;;;;;;;;;;;;20.25;33.33;98747.50;5420528;26;2434;-73
2024/04/13 07:43:33;;;;;;;;;;;;;;;20.52;32.99;98739.22;5352039;26;1122;-74
2024/04/13 07:45:59;;;;;;;;;;;;;;;20.47;33.03;98731.19;5323163;26;1236;-75
2024/04/13 07:48:24;;;;;;;;;;;;;;;20.44;33.05;98731.19;5346066;26;2095;-74
2024/04/13 07:50:50;;;;;;;;;;;;;;;20.86;32.24;98729.94;5317612;26;1137;-73
2024/04/13 07:53:15;;;;;;;;;;;;;;;20.38;32.99;98727.22;5346404;26;1016;-74
2024/04/13 07:55:41;;;;;;;;;;;;;;;20.66;32.45;98732.59;5346476;26;1172;-73
2024/04/13 07:58:07;;;;;;;;;;;;;;;20.81;32.26;98733.25;5317160;26;1826;-75
2024/04/13 08:00:33;;;;;;;;;;;;;;;20.62;32.41;98731.03;5372990;26;2383;-74
2024/04/13 08:03:00;;;;;;;;;;;;;;;20.73;32.28;98721.22;5351909;26;984;-74
2024/04/13 08:05:26;;;;;;;;;;;;;;;20.60;32.45;98722.97;5352280;26;966;-74
2024/04/13 08:07:52;;;;;;;;;;;;;;;20.44;33.00;98723.53;5351703;26;1182;-75
2024/04/13 08:10:19;;;;;;;;;;;;;;;20.77;33.10;98721.16;5328565;26;2483;-75
2024/04/13 08:12:45;;;;;;;;;;;;;;;20.92;33.49;98727.44;5345965;26;1324;-74
2024/04/13 08:15:11;;;;;;;;;;;;;;;20.99;33.77;98716.06;5370565;26;2067;-74
2024/04/13 08:17:37;;;;;;;;;;;;;;;21.16;33.92;98729.16;5351766;26;1879;-74
2024/04/13 08:20:04;;;;;;;;;;;;;;;21.19;34.16;98719.84;5322863;26;1491;-74
2024/04/13 08:22:30;;;;;;;;;;;;;;;21.11;34.08;98717.53;5381141;26;911;-74
2024/04/13 08:24:55;;;;;;;;;;;;;;;20.52;35.06;98727.09;5380832;26;979;-74
2024/04/13 08:27:21;;;;;;;;;;;;;;;20.63;34.53;98710.84;5380906;26;918;-74
2024/04/13 08:29:49;;;;;;;;;;;;;;;20.74;33.93;98716.38;5357381;26;2314;-73
2024/04/13 08:32:15;;;;;;;;;;;;;;;20.80;33.72;98714.66;5316947;26;978;-74
2024/04/13 08:34:40;;;;;;;;;;;;;;;20.72;33.37;98707.47;5317464;26;1047;-73
2024/04/13 08:37:06;;;;;;;;;;;;;;;20.62;33.49;98703.56;5287988;26;1830;-74
2024/04/13 08:39:35;;;;;;;;;;;;;;;20.29;34.08;98703.06;5316808;26;871;-74
2024/04/13 08:42:06;;;;;;;;;;;;;;;20.62;33.90;98709.22;5317474;26;1026;-74
2024/04/13 08:44:32;;;;;;;;;;;;;;;20.27;34.25;98705.53;5399788;26;2304;-74
2024/04/13 08:46:59;;;;;;;;;;;;;;;20.63;33.54;98699.53;5455997;26;957;-73
2024/04/13 08:49:24;;;;;;;;;;;;;;;20.65;33.47;98705.53;5425141;26;884;-74
2024/04/13 08:51:50;;;;;;;;;;;;;;;20.38;33.53;98670.69;5425326;26;921;-73
2024/04/13 08:54:16;;;;;;;;;;;;;;;20.51;33.61;98709.31;5425430;26;936;-74
2024/04/13 08:56:42;;;;;;;;;;;;;;;20.37;33.91;98703.03;5426372;26;1818;-74
2024/04/13 08:59:07;;;;;;;;;;;;;;;20.73;33.10;98700.63;5375221;26;1831;-74
2024/04/13 09:01:33;;;;;;;;;;;;;;;20.40;33.63;98702.16;5422264;26;1005;-75
2024/04/13 09:03:59;;;;;;;;;;;;;;;20.57;33.25;98694.72;5361384;26;1259;-74
2024/04/13 09:06:24;;;;;;;;;;;;;;;20.39;33.76;98700.56;5319480;26;939;-74
2024/04/13 09:08:50;;;;;;;;;;;;;;;20.37;33.61;98691.72;5291365;26;965;-73
2024/04/13 09:11:15;;;;;;;;;;;;;;;20.51;33.38;98689.53;5319570;26;1260;-74
2024/04/13 09:13:42;;;;;;;;;;;;;;;20.45;33.64;98690.41;5319221;26;1857;-74
2024/04/13 09:16:08;;;;;;;;;;;;;;;20.32;33.64;98687.31;5319663;26;1814;-73
2024/04/13 09:18:34;;;;;;;;;;;;;;;20.38;33.40;98693.31;5319426;26;958;-74
2024/04/13 09:21:00;;;;;;;;;;;;;;;20.67;32.83;98677.63;5349111;26;1095;-74
2024/04/13 09:23:27;;;;;;;;;;;;;;;20.37;33.45;98683.22;5319954;26;971;-74
2024/04/13 09:26:02;;;;;;;;;;;;;;;20.50;33.34;98684.31;5348202;26;1024;-73
2024/04/13 09:28:37;;;;;;;;;;;;;;;20.50;33.50;98685.13;5318159;26;2172;-73
2024/04/13 09:31:03;;;;;;;;;;;;;;;20.62;33.27;98675.28;5322861;26;2223;-73
2024/04/13 09:33:28;;;;;;;;;;;;;;;20.14;34.05;98683.84;5285369;27;911;-75
2024/04/13 09:35:57;;;;;;;;;;;;;;;20.00;34.35;98691.25;5313670;26;2222;-73
2024/04/13 09:38:23;;;;;;;;;;;;;;;20.45;33.57;98687.56;5378807;26;1910;-74
2024/04/13 09:40:49;;;;;;;;;;;;;;;20.59;33.03;98681.78;5390808;26;943;-74
2024/04/13 09:43:21;;;;;;;;;;;;;;;20.16;33.92;98682.22;5385260;26;932;-73
2024/04/13 09:45:48;;;;;;;;;;;;;;;20.53;32.94;98680.66;5361489;26;1021;-74
2024/04/13 09:48:13;;;;;;;;;;;;;;;20.35;33.57;98671.53;5336021;26;2318;-73
2024/04/13 09:50:39;;;;;;;;;;;;;;;20.01;34.28;98675.13;5383113;26;971;-74
2024/04/13 09:53:04;;;;;;;;;;;;;;;20.35;33.22;98671.53;5382864;26;941;-73
2024/04/13 09:55:30;;;;;;;;;;;;;;;20.75;32.70;98673.50;5382798;26;929;-74
2024/04/13 09:57:56;;;;;;;;;;;;;;;20.50;33.11;98667.34;5353269;26;1822;-74
2024/04/13 10:00:22;;;;;;;;;;;;;;;20.69;32.82;98661.06;5383091;26;990;-74
2024/04/13 10:02:49;;;;;;;;;;;;;;;20.79;32.43;98660.13;5352302;26;2385;-74
2024/04/13 10:05:14;;;;;;;;;;;;;;;20.52;32.90;98662.06;5347522;26;2103;-73
2024/04/13 10:07:40;;;;;;;;;;;;;;;20.91;32.34;98669.28;5382005;26;2384;-73
2024/04/13 10:10:06;;;;;;;;;;;;;;;20.28;33.18;98669.59;5353777;26;920;-74
2024/04/13 10:12:32;;;;;;;;;;;;;;;20.56;32.88;98662.84;5353526;26;860;-74
2024/04/13 10:14:58;;;;;;;;;;;;;;;19.98;33.91;98667.47;5382732;26;927;-74
2024/04/13 10:17:23;;;;;;;;;;;;;;;20.00;33.80;98651.72;5353575;26;1829;-74
2024/04/13 10:19:49;;;;;;;;;;;;;;;20.63;32.73;98654.28;5407184;26;993;-74
2024/04/13 10:22:14;;;;;;;;;;;;;;;20.71;32.41;98655.78;5417518;26;2275;-72
2024/04/13 10:24:46;;;;;;;;;;;;;;;20.48;32.96;98652.84;5456221;26;1825;-74
2024/04/13 10:27:11;;;;;;;;;;;;;;;20.36;33.28;98647.69;5395770;26;1137;-74
2024/04/13 10:29:40;;;;;;;;;;;;;;;20.20;33.28;98654.72;5425455;26;872;-74
2024/04/13 10:32:22;;;;;;;;;;;;;;;20.46;33.17;98650.41;5425466;26;2268;-74
2024/04/13 10:34:48;;;;;;;;;;;;;;;20.64;32.77;98644.56;5396412;26;929;-73
2024/04/13 10:37:26;;;;;;;;;;;;;;;20.48;32.85;98658.50;5395428;26;1825;-74
2024/04/13 10:39:59;;;;;;;;;;;;;;;20.52;33.04;98647.94;5424132;26;2257;-73
2024/04/13 10:42:35;;;;;;;;;;;;;;;20.54;32.75;98646.31;5395322;26;1134;-74
2024/04/13 10:45:02;;;;;;;;;;;;;;;20.62;32.51;98644.16;5395337;26;1229;-74
2024/04/13 10:47:29;;;;;;;;;;;;;;;19.99;33.91;98649.28;5425702;26;953;-74
2024/04/13 10:49:55;;;;;;;;;;;;;;;20.49;32.94;98643.13;5425028;26;901;-74
2024/04/13 10:52:20;;;;;;;;;;;;;;;20.52;32.76;98645.09;5456714;26;927;-75
2024/04/13 10:54:55;;;;;;;;;;;;;;;20.72;32.69;98640.41;5454488;26;2132;-74
2024/04/13 10:57:21;;;;;;;;;;;;;;;20.87;33.25;98641.03;5395161;26;1826;-74
2024/04/13 10:59:47;;;;;;;;;;;;;;;21.11;33.29;98643.94;5424907;26;1041;-73
2024/04/13 11:02:12;;;;;;;;;;;;;;;20.84;34.49;98638.25;5364794;26;956;-74
2024/04/13 11:04:42;;;;;;;;;;;;;;;20.86;34.64;98644.28;5455637;26;932;-74
2024/04/13 11:07:08;;;;;;;;;;;;;;;21.19;34.20;98637.75;5395251;26;1042;-74
2024/04/13 11:09:33;;;;;;;;;;;;;;;20.96;34.49;98637.69;5394044;26;2383;-74
2024/04/13 11:11:59;;;;;;;;;;;;;;;21.04;33.67;98633.53;5456439;26;897;-74
2024/04/13 11:14:26;;;;;;;;;;;;;;;21.13;33.55;98618.84;5424816;26;957;-74
2024/04/13 11:16:51;;;;;;;;;;;;;;;20.95;33.95;98633.25;5424740;26;1831;-73
2024/04/13 11:19:17;;;;;;;;;;;;;;;20.77;34.21;98622.97;5378569;26;2133;-74
2024/04/13 11:21:42;;;;;;;;;;;;;;;20.96;33.74;98632.03;5382261;26;1929;-74
2024/04/13 11:24:09;;;;;;;;;;;;;;;20.86;33.82;98627.31;5388991;26;1101;-74
2024/04/13 11:26:34;;;;;;;;;;;;;;;20.99;33.38;98625.53;5357930;26;2456;-74
2024/04/13 11:29:00;;;;;;;;;;;;;;;20.70;33.66;98620.25;5389126;26;906;-74
2024/04/13 11:31:25;;;;;;;;;;;;;;;20.86;33.19;98627.31;5420197;26;842;-75
2024/04/13 11:33:51;;;;;;;;;;;;;;;20.84;33.21;98624.91;5359712;26;932;-74
2024/04/13 11:36:19;;;;;;;;;;;;;;;20.38;33.86;98620.63;5388925;26;1825;-73
2024/04/13 11:38:45;;;;;;;;;;;;;;;20.61;33.65;98610.69;5420026;26;981;-73
2024/04/13 11:41:10;;;;;;;;;;;;;;;20.88;33.09;98619.19;5387077;26;2126;-74
2024/04/13 11:43:36;;;;;;;;;;;;;;;20.72;33.22;98617.78;5409058;26;2376;-74
2024/04/13 11:46:01;;;;;;;;;;;;;;;20.46;33.78;98612.84;5365471;26;1173;-74
2024/04/13 11:48:29;;;;;;;;;;;;;;;20.49;33.69;98609.22;5381089;26;930;-75
2024/04/13 11:50:56;;;;;;;;;;;;;;;20.74;33.21;98609.69;5381364;26;965;-73
2024/04/13 11:53:21;;;;;;;;;;;;;;;20.56;33.53;98609.13;5323294;26;951;-73
2024/04/13 11:55:50;;;;;;;;;;;;;;;20.77;33.08;98591.84;5323554;26;945;-74
2024/04/13 11:58:19;;;;;;;;;;;;;;;20.70;32.89;98600.44;5351099;26;2027;-74
2024/04/13 12:00:44;;;;;;;;;;;;;;;20.93;32.41;98599.72;5344426;26;2350;-75
2024/04/13 12:03:10;;;;;;;;;;;;;;;20.57;32.91;98588.09;5317851;26;1190;-74
2024/04/13 12:05:35;;;;;;;;;;;;;;;20.57;33.06;98588.09;5317274;26;953;-74
2024/04/13 12:08:01;;;;;;;;;;;;;;;20.72;32.85;98583.84;5288857;26;1107;-74
2024/04/13 12:10:27;;;;;;;;;;;;;;;20.52;33.24;98586.56;5317232;26;963;-74
2024/04/13 12:12:52;;;;;;;;;;;;;;;20.29;33.84;98592.84;5289038;26;1016;-74
2024/04/13 12:15:18;;;;;;;;;;;;;;;20.38;33.52;98583.88;5319880;26;1744;-74
2024/04/13 12:17:43;;;;;;;;;;;;;;;20.53;33.33;98581.72;5335218;26;2075;-74
2024/04/13 12:20:09;;;;;;;;;;;;;;;20.13;33.70;98581.34;5439017;26;1130;-74
2024/04/13 12:22:34;;;;;;;;;;;;;;;20.47;33.27;98572.91;5423300;26;1244;-74
2024/04/13 12:25:00;;;;;;;;;;;;;;;20.53;32.99;98573.22;5417587;26;1006;-73
2024/04/13 12:27:25;;;;;;;;;;;;;;;20.47;33.13;98569.28;5417552;26;928;-75
2024/04/13 12:29:51;;;;;;;;;;;;;;;20.22;33.76;98570.34;5417864;26;1114;-74
2024/04/13 12:32:16;;;;;;;;;;;;;;;20.63;32.64;98569.47;5415135;26;2112;-74
2024/04/13 12:34:42;;;;;;;;;;;;;;;20.54;32.92;98566.34;5416931;26;2347;-74
2024/04/13 12:37:08;;;;;;;;;;;;;;;19.99;33.51;98567.38;5387696;26;1825;-74
2024/04/13 12:39:33;;;;;;;;;;;;;;;20.25;33.29;98572.31;5388041;26;955;-74
2024/04/13 12:42:00;;;;;;;;;;;;;;;20.53;32.54;98553.44;5417541;26;901;-74
2024/04/13 12:44:28;;;;;;;;;;;;;;;20.47;32.86;98555.13;5388046;26;1168;-73
2024/04/13 12:46:54;;;;;;;;;;;;;;;20.87;32.23;98556.16;5388513;26;1152;-74
2024/04/13 12:49:20;;;;;;;;;;;;;;;20.18;33.07;98551.84;5414209;26;2223;-75
2024/04/13 12:51:45;;;;;;;;;;;;;;;20.71;32.30;98548.31;5417164;26;1227;-73
2024/04/13 12:54:11;;;;;;;;;;;;;;;20.34;32.92;98542.75;5356932;26;1205;-74